Time;durP1;ratioP1;P1;durP2;ratioP2;P2;SDS_P1;SDS_P2;PMS_P1;PMS_P2;Temp;Humidity;BMP_temperature;BMP_pressure;BME280_temperature;BME280_humidity;BME280_pressure;Samples;Min_cycle;Max_cycle;Signal;HPM_P1;HPM_P2
2024/02/21 00:00:13;;;;;;;;;;;7.20;70.00;;;;;;5015154;28;87928;-44
2024/02/21 00:02:38;;;;;;;;;;;7.20;70.00;;;;;;5017991;28;88743;-44
2024/02/21 00:05:04;;;;;;;;;;;7.20;70.00;;;;;;5015039;28;87562;-44
2024/02/21 00:07:30;;;;;;;;;;;7.20;70.00;;;;;;5016150;28;87375;-44
2024/02/21 00:09:56;;;;;;;;;;;7.20;70.00;;;;;;5020686;28;87074;-44
2024/02/21 00:12:21;;;;;;;;;;;7.20;70.00;;;;;;5017396;28;87453;-44
2024/02/21 00:14:47;;;;;;;;;;;7.10;69.90;;;;;;5017333;28;87245;-44
2024/02/21 00:17:12;;;;;;;;;;;7.20;70.00;;;;;;5025853;28;86836;-44
2024/02/21 00:19:38;;;;;;;;;;;7.20;70.00;;;;;;5012512;28;87110;-44
2024/02/21 00:22:03;;;;;;;;;;;7.20;70.00;;;;;;5019445;28;86967;-44
2024/02/21 00:24:29;;;;;;;;;;;7.20;70.00;;;;;;5017501;28;88366;-44
2024/02/21 00:26:55;;;;;;;;;;;7.10;69.90;;;;;;5019549;28;87064;-44
2024/02/21 00:29:20;;;;;;;;;;;7.10;69.90;;;;;;5016514;28;86917;-44
2024/02/21 00:31:47;;;;;;;;;;;7.10;70.00;;;;;;5021628;28;87520;-44
2024/02/21 00:34:13;;;;;;;;;;;7.10;69.90;;;;;;5017705;28;87807;-44
2024/02/21 00:36:38;;;;;;;;;;;7.10;70.00;;;;;;5018426;28;86973;-44
2024/02/21 00:39:04;;;;;;;;;;;7.10;69.90;;;;;;5021702;28;87842;-44
2024/02/21 00:41:29;;;;;;;;;;;7.10;69.90;;;;;;5018322;28;86756;-44
2024/02/21 00:43:55;;;;;;;;;;;7.10;70.00;;;;;;5019706;28;87335;-44
2024/02/21 00:46:20;;;;;;;;;;;7.10;69.90;;;;;;5012510;28;87014;-44
2024/02/21 00:48:46;;;;;;;;;;;7.10;69.90;;;;;;5017058;28;87963;-44
2024/02/21 00:51:11;;;;;;;;;;;7.10;70.00;;;;;;5016764;28;87580;-44
2024/02/21 00:53:38;;;;;;;;;;;7.00;69.90;;;;;;5013442;28;87177;-44
2024/02/21 00:56:06;;;;;;;;;;;7.10;70.00;;;;;;5018197;28;89600;-44
2024/02/21 00:58:32;;;;;;;;;;;7.10;70.00;;;;;;5012611;28;88396;-44
2024/02/21 01:00:57;;;;;;;;;;;7.10;70.00;;;;;;5016305;28;87343;-44
2024/02/21 01:03:23;;;;;;;;;;;7.10;70.00;;;;;;5021277;28;87515;-44
2024/02/21 01:05:48;;;;;;;;;;;7.00;69.90;;;;;;5021017;28;86428;-44
2024/02/21 01:08:14;;;;;;;;;;;7.00;69.90;;;;;;5016214;28;86885;-44
2024/02/21 01:10:40;;;;;;;;;;;7.00;69.90;;;;;;5014243;28;87623;-45
2024/02/21 01:13:07;;;;;;;;;;;7.00;69.90;;;;;;5009249;28;87944;-44
2024/02/21 01:15:33;;;;;;;;;;;7.00;69.90;;;;;;5017712;28;88859;-44
2024/02/21 01:17:58;;;;;;;;;;;7.00;69.90;;;;;;5015815;28;87518;-44
2024/02/21 01:20:24;;;;;;;;;;;7.00;69.90;;;;;;5018228;28;87018;-44
2024/02/21 01:22:49;;;;;;;;;;;7.00;69.90;;;;;;5018331;28;86991;-45
2024/02/21 01:25:15;;;;;;;;;;;7.00;69.90;;;;;;5014201;28;86988;-44
2024/02/21 01:27:41;;;;;;;;;;;7.00;69.90;;;;;;5014688;28;87377;-44
2024/02/21 01:30:07;;;;;;;;;;;7.00;70.00;;;;;;5012372;28;87772;-44
2024/02/21 01:32:33;;;;;;;;;;;7.00;69.90;;;;;;5018129;28;87026;-45
2024/02/21 01:34:58;;;;;;;;;;;6.90;69.90;;;;;;5011150;28;87811;-44
2024/02/21 01:37:24;;;;;;;;;;;6.90;69.90;;;;;;5015029;28;89472;-44
2024/02/21 01:39:50;;;;;;;;;;;6.90;69.90;;;;;;5013787;28;87112;-44
2024/02/21 01:42:16;;;;;;;;;;;7.00;69.90;;;;;;5018341;28;88000;-44
2024/02/21 01:44:41;;;;;;;;;;;6.90;69.90;;;;;;5012101;28;87735;-44
2024/02/21 01:47:07;;;;;;;;;;;6.90;69.90;;;;;;5018667;28;87770;-44
2024/02/21 01:49:33;;;;;;;;;;;6.90;69.90;;;;;;5011425;28;88517;-44
2024/02/21 01:51:59;;;;;;;;;;;6.90;69.90;;;;;;5016322;28;86966;-44
2024/02/21 01:54:25;;;;;;;;;;;6.90;69.90;;;;;;5020040;28;86649;-44
2024/02/21 01:56:51;;;;;;;;;;;6.90;69.90;;;;;;5014505;28;87676;-44
2024/02/21 01:59:18;;;;;;;;;;;6.90;69.90;;;;;;5014053;28;87189;-44
2024/02/21 02:01:44;;;;;;;;;;;6.90;69.90;;;;;;5014021;28;87970;-44
2024/02/21 02:04:09;;;;;;;;;;;6.90;69.90;;;;;;5021446;28;87329;-44
2024/02/21 02:06:35;;;;;;;;;;;6.90;69.90;;;;;;5014385;28;87103;-44
2024/02/21 02:09:01;;;;;;;;;;;6.90;70.50;;;;;;5020556;28;86823;-44
2024/02/21 02:11:26;;;;;;;;;;;6.90;69.90;;;;;;5017127;28;87010;-45
2024/02/21 02:13:52;;;;;;;;;;;6.90;69.90;;;;;;5013093;28;87661;-44
2024/02/21 02:16:17;;;;;;;;;;;6.80;69.90;;;;;;5019382;28;87389;-44
2024/02/21 02:18:43;;;;;;;;;;;6.80;69.80;;;;;;5017385;28;87014;-44
2024/02/21 02:21:12;;;;;;;;;;;6.90;70.50;;;;;;5015067;28;87000;-44
2024/02/21 02:23:38;;;;;;;;;;;6.80;69.80;;;;;;5015820;28;87523;-44
2024/02/21 02:26:03;;;;;;;;;;;6.80;69.80;;;;;;5019447;28;88400;-45
2024/02/21 02:28:29;;;;;;;;;;;6.80;69.90;;;;;;5016293;28;87380;-44
2024/02/21 02:30:54;;;;;;;;;;;6.80;69.90;;;;;;5020680;28;87646;-44
2024/02/21 02:33:20;;;;;;;;;;;6.80;69.90;;;;;;5017354;28;87035;-44
2024/02/21 02:35:46;;;;;;;;;;;6.80;69.80;;;;;;5018729;28;87405;-44
2024/02/21 02:38:13;;;;;;;;;;;6.80;69.90;;;;;;5015178;28;87022;-44
2024/02/21 02:40:40;;;;;;;;;;;6.80;69.90;;;;;;5014469;28;88047;-44
2024/02/21 02:43:06;;;;;;;;;;;6.80;69.90;;;;;;5018289;28;88031;-45
2024/02/21 02:45:32;;;;;;;;;;;6.80;69.90;;;;;;5015395;28;87159;-44
2024/02/21 02:47:57;;;;;;;;;;;6.80;69.90;;;;;;5016394;28;86964;-44
2024/02/21 02:50:23;;;;;;;;;;;6.80;69.90;;;;;;5015881;28;87953;-44
2024/02/21 02:52:49;;;;;;;;;;;6.80;69.90;;;;;;5012375;28;89018;-45
2024/02/21 02:55:15;;;;;;;;;;;6.80;69.90;;;;;;5017118;28;87619;-44
2024/02/21 02:57:41;;;;;;;;;;;6.80;69.90;;;;;;5016089;28;87204;-44
2024/02/21 03:00:08;;;;;;;;;;;6.80;69.90;;;;;;5016011;28;88239;-44
2024/02/21 03:02:34;;;;;;;;;;;6.70;69.90;;;;;;5023778;28;87517;-44
2024/02/21 03:04:59;;;;;;;;;;;6.80;69.90;;;;;;5021606;28;87520;-44
2024/02/21 03:07:25;;;;;;;;;;;6.70;69.80;;;;;;5017040;28;86833;-44
2024/02/21 03:09:53;;;;;;;;;;;6.70;69.80;;;;;;5022041;28;87408;-44
2024/02/21 03:12:24;;;;;;;;;;;6.70;69.80;;;;;;5016261;28;87847;-44
2024/02/21 03:14:50;;;;;;;;;;;6.70;69.80;;;;;;5019209;28;89377;-44
2024/02/21 03:17:16;;;;;;;;;;;6.70;69.90;;;;;;5021010;28;87093;-44
2024/02/21 03:19:41;;;;;;;;;;;6.70;69.80;;;;;;5017594;28;86933;-44
2024/02/21 03:22:07;;;;;;;;;;;6.70;69.80;;;;;;5016863;28;87550;-44
2024/02/21 03:24:33;;;;;;;;;;;6.70;69.80;;;;;;5017277;28;87016;-43
2024/02/21 03:26:58;;;;;;;;;;;6.70;69.80;;;;;;5022120;28;87123;-44
2024/02/21 03:29:24;;;;;;;;;;;6.70;69.80;;;;;;5018436;28;88640;-44
2024/02/21 03:31:50;;;;;;;;;;;6.70;69.80;;;;;;5025158;28;86230;-44
2024/02/21 03:34:16;;;;;;;;;;;6.70;69.90;;;;;;5017174;28;87451;-45
2024/02/21 03:36:41;;;;;;;;;;;6.70;69.80;;;;;;5016753;28;87046;-44
2024/02/21 03:39:09;;;;;;;;;;;6.70;69.90;;;;;;5018380;28;87832;-44
2024/02/21 03:41:34;;;;;;;;;;;6.70;69.90;;;;;;5013130;28;87671;-44
2024/02/21 03:44:00;;;;;;;;;;;6.60;69.80;;;;;;5019120;28;86879;-44
2024/02/21 03:46:27;;;;;;;;;;;6.70;69.90;;;;;;5021785;28;87084;-44
2024/02/21 03:48:52;;;;;;;;;;;6.70;70.50;;;;;;5012720;28;87273;-44
2024/02/21 03:51:18;;;;;;;;;;;6.60;69.90;;;;;;5023363;28;87066;-44
2024/02/21 03:53:43;;;;;;;;;;;6.60;69.80;;;;;;5020677;28;87308;-44
2024/02/21 03:56:09;;;;;;;;;;;6.60;69.80;;;;;;5016735;28;86325;-44
2024/02/21 03:58:34;;;;;;;;;;;6.60;69.80;;;;;;5018387;28;86977;-44
2024/02/21 04:01:01;;;;;;;;;;;6.60;69.80;;;;;;5014797;28;87431;-44
2024/02/21 04:03:27;;;;;;;;;;;6.60;69.80;;;;;;5014525;28;88022;-44
2024/02/21 04:05:52;;;;;;;;;;;6.60;69.80;;;;;;5018788;28;87717;-44
2024/02/21 04:08:18;;;;;;;;;;;6.60;69.80;;;;;;5022392;28;88468;-44
2024/02/21 04:10:43;;;;;;;;;;;6.60;69.80;;;;;;5011576;28;87960;-44
2024/02/21 04:13:09;;;;;;;;;;;6.60;69.80;;;;;;5019265;28;86882;-44
2024/02/21 04:15:35;;;;;;;;;;;6.60;69.80;;;;;;5016068;28;86979;-44
2024/02/21 04:18:01;;;;;;;;;;;6.60;69.80;;;;;;5013719;28;87653;-44
2024/02/21 04:20:26;;;;;;;;;;;6.60;69.80;;;;;;5015084;28;86660;-44
2024/02/21 04:22:52;;;;;;;;;;;6.60;69.90;;;;;;5025286;28;87033;-44
2024/02/21 04:25:19;;;;;;;;;;;6.60;69.80;;;;;;5014940;28;87936;-44
2024/02/21 04:27:44;;;;;;;;;;;6.60;69.80;;;;;;5018487;28;89632;-44
2024/02/21 04:30:10;;;;;;;;;;;6.50;69.80;;;;;;5019987;28;87033;-45
2024/02/21 04:32:35;;;;;;;;;;;6.50;69.80;;;;;;5014425;28;86878;-44
2024/02/21 04:35:01;;;;;;;;;;;6.60;69.80;;;;;;5023226;28;86920;-44
2024/02/21 04:37:27;;;;;;;;;;;6.60;69.80;;;;;;5019309;28;87160;-44
2024/02/21 04:39:52;;;;;;;;;;;6.50;69.80;;;;;;5016952;28;87547;-44
2024/02/21 04:42:18;;;;;;;;;;;6.50;69.80;;;;;;5015631;28;87129;-44
2024/02/21 04:44:43;;;;;;;;;;;6.50;69.80;;;;;;5016193;28;86863;-44
2024/02/21 04:47:09;;;;;;;;;;;6.50;69.80;;;;;;5016615;28;87394;-44
2024/02/21 04:49:34;;;;;;;;;;;6.50;69.80;;;;;;5017599;28;87057;-44
2024/02/21 04:52:00;;;;;;;;;;;6.50;69.80;;;;;;5013680;28;88180;-44
2024/02/21 04:54:26;;;;;;;;;;;6.50;69.80;;;;;;5015074;28;87107;-44
2024/02/21 04:56:51;;;;;;;;;;;6.50;69.80;;;;;;5021658;28;86973;-44
2024/02/21 04:59:17;;;;;;;;;;;6.50;69.80;;;;;;5017298;28;87292;-44
2024/02/21 05:01:43;;;;;;;;;;;6.50;69.80;;;;;;5013797;28;87962;-44
2024/02/21 05:04:08;;;;;;;;;;;6.50;69.80;;;;;;5015723;28;87787;-45
2024/02/21 05:06:38;;;;;;;;;;;6.50;69.80;;;;;;5016910;28;87547;-44
2024/02/21 05:09:04;;;;;;;;;;;6.50;69.80;;;;;;5018265;28;86470;-44
2024/02/21 05:11:30;;;;;;;;;;;6.50;69.80;;;;;;5017853;28;87228;-44
2024/02/21 05:13:56;;;;;;;;;;;6.50;69.80;;;;;;5018334;28;87417;-44
2024/02/21 05:16:21;;;;;;;;;;;6.50;69.80;;;;;;5011939;28;88045;-45
2024/02/21 05:18:47;;;;;;;;;;;6.50;69.80;;;;;;5021091;28;87435;-44
2024/02/21 05:21:13;;;;;;;;;;;6.50;69.80;;;;;;5016032;28;87128;-44
2024/02/21 05:23:39;;;;;;;;;;;6.40;69.70;;;;;;5013975;28;87791;-44
2024/02/21 05:26:05;;;;;;;;;;;6.40;69.70;;;;;;5014205;28;88760;-44
2024/02/21 05:28:31;;;;;;;;;;;6.40;69.70;;;;;;5016315;28;87810;-44
2024/02/21 05:30:56;;;;;;;;;;;6.40;69.80;;;;;;5016561;28;86992;-44
2024/02/21 05:33:22;;;;;;;;;;;6.40;69.70;;;;;;5020869;28;86617;-45
2024/02/21 05:35:50;;;;;;;;;;;6.40;69.80;;;;;;5015641;28;87270;-44
2024/02/21 05:38:16;;;;;;;;;;;6.40;69.70;;;;;;5018827;28;88491;-44
2024/02/21 05:40:41;;;;;;;;;;;6.40;69.70;;;;;;5017142;28;87984;-44
2024/02/21 05:43:07;;;;;;;;;;;6.40;69.70;;;;;;5016650;28;88012;-44
2024/02/21 05:45:33;;;;;;;;;;;6.40;69.70;;;;;;5018952;28;87834;-44
2024/02/21 05:47:59;;;;;;;;;;;6.40;69.80;;;;;;5018368;28;87731;-44
2024/02/21 05:50:26;;;;;;;;;;;6.40;69.70;;;;;;5012258;28;87534;-44
2024/02/21 05:52:52;;;;;;;;;;;6.40;69.80;;;;;;5017462;28;87682;-44
2024/02/21 05:55:18;;;;;;;;;;;6.30;69.70;;;;;;5018575;28;87062;-44
2024/02/21 05:57:44;;;;;;;;;;;6.40;69.80;;;;;;5014450;28;86794;-44
2024/02/21 06:00:09;;;;;;;;;;;6.30;69.70;;;;;;5018098;28;87468;-44
2024/02/21 06:02:35;;;;;;;;;;;6.40;69.80;;;;;;5018008;28;87001;-44
2024/02/21 06:05:01;;;;;;;;;;;6.30;69.70;;;;;;5015150;28;88424;-44
2024/02/21 06:07:26;;;;;;;;;;;6.30;69.70;;;;;;5019737;28;87961;-44
2024/02/21 06:09:52;;;;;;;;;;;6.30;69.70;;;;;;5009515;28;88776;-45
2024/02/21 06:12:17;;;;;;;;;;;6.30;69.70;;;;;;5015236;28;87485;-44
2024/02/21 06:14:43;;;;;;;;;;;6.30;69.70;;;;;;5021195;28;86993;-45
2024/02/21 06:17:08;;;;;;;;;;;6.30;69.70;;;;;;5013106;28;87597;-44
2024/02/21 06:19:34;;;;;;;;;;;6.30;69.70;;;;;;5018048;28;88765;-44
2024/02/21 06:21:59;;;;;;;;;;;6.30;69.70;;;;;;5024084;28;86292;-44
2024/02/21 06:24:25;;;;;;;;;;;6.30;69.70;;;;;;5013547;28;88439;-44
2024/02/21 06:26:51;;;;;;;;;;;6.30;69.70;;;;;;5010202;28;87078;-44
2024/02/21 06:29:16;;;;;;;;;;;6.30;69.80;;;;;;5022985;28;87842;-44
2024/02/21 06:31:42;;;;;;;;;;;6.30;69.80;;;;;;5016767;28;87456;-44
2024/02/21 06:34:07;;;;;;;;;;;6.30;70.00;;;;;;5016361;28;87698;-44
2024/02/21 06:36:33;;;;;;;;;;;6.30;70.40;;;;;;5015326;28;87906;-44
2024/02/21 06:38:58;;;;;;;;;;;6.40;71.10;;;;;;5013654;28;87483;-44
2024/02/21 06:41:24;;;;;;;;;;;6.40;72.10;;;;;;5017114;28;86981;-44
2024/02/21 06:43:50;;;;;;;;;;;6.50;73.10;;;;;;5019684;28;88063;-44
2024/02/21 06:46:33;;;;;;;;;;;6.60;74.30;;;;;;5013511;28;86959;-44
2024/02/21 06:49:00;;;;;;;;;;;6.60;75.40;;;;;;5019139;28;87338;-44
2024/02/21 06:51:25;;;;;;;;;;;6.70;76.60;;;;;;5010682;28;87468;-44
2024/02/21 06:53:51;;;;;;;;;;;6.80;77.70;;;;;;5014043;28;88925;-44
2024/02/21 06:56:17;;;;;;;;;;;6.90;78.60;;;;;;5015997;28;87791;-44
2024/02/21 06:58:42;;;;;;;;;;;7.00;79.60;;;;;;5012601;28;87437;-44
2024/02/21 07:01:08;;;;;;;;;;;7.10;80.60;;;;;;5015799;28;87062;-44
2024/02/21 07:03:34;;;;;;;;;;;7.20;81.40;;;;;;5014559;28;88790;-44
2024/02/21 07:05:59;;;;;;;;;;;7.30;82.20;;;;;;5020246;28;88366;-44
2024/02/21 07:08:25;;;;;;;;;;;7.40;82.90;;;;;;5013005;28;87768;-44
2024/02/21 07:10:51;;;;;;;;;;;7.50;83.60;;;;;;5013051;28;86873;-44
2024/02/21 07:13:17;;;;;;;;;;;7.70;84.20;;;;;;5009262;28;87090;-44
2024/02/21 07:15:43;;;;;;;;;;;7.80;84.80;;;;;;5017445;28;87014;-44
2024/02/21 07:18:08;;;;;;;;;;;7.90;85.30;;;;;;5011938;28;88406;-44
2024/02/21 07:20:36;;;;;;;;;;;8.00;85.80;;;;;;5013171;28;87007;-44
2024/02/21 07:23:02;;;;;;;;;;;8.10;86.10;;;;;;5012932;28;87851;-44
2024/02/21 07:25:27;;;;;;;;;;;8.20;86.50;;;;;;5014119;28;87399;-44
2024/02/21 07:27:53;;;;;;;;;;;8.40;87.00;;;;;;5018137;28;87667;-44
2024/02/21 07:30:19;;;;;;;;;;;8.50;87.30;;;;;;5012647;28;88633;-44
2024/02/21 07:32:44;;;;;;;;;;;8.60;87.60;;;;;;5018594;28;87941;-44
2024/02/21 07:35:11;;;;;;;;;;;8.70;87.90;;;;;;5015915;28;87076;-44
2024/02/21 07:37:37;;;;;;;;;;;8.80;88.20;;;;;;5014763;28;88582;-44
2024/02/21 07:40:06;;;;;;;;;;;8.90;88.50;;;;;;5018513;28;87002;-44
2024/02/21 07:42:32;;;;;;;;;;;9.00;88.70;;;;;;5013089;28;89717;-44
2024/02/21 07:44:57;;;;;;;;;;;9.10;88.90;;;;;;5020756;28;87565;-44
2024/02/21 07:47:24;;;;;;;;;;;9.30;89.20;;;;;;5024459;28;87053;-44
2024/02/21 07:49:49;;;;;;;;;;;9.40;89.30;;;;;;5015717;28;89087;-44
2024/02/21 07:52:15;;;;;;;;;;;9.50;89.50;;;;;;5018160;28;87801;-44
2024/02/21 07:54:41;;;;;;;;;;;9.60;89.70;;;;;;5018035;28;86881;-44
2024/02/21 07:57:07;;;;;;;;;;;9.70;89.80;;;;;;5015989;28;87484;-44
2024/02/21 07:59:32;;;;;;;;;;;9.80;90.00;;;;;;5023840;28;86344;-44
2024/02/21 08:01:58;;;;;;;;;;;9.90;90.00;;;;;;5018763;28;87047;-44
2024/02/21 08:04:24;;;;;;;;;;;10.10;90.10;;;;;;5017729;28;88668;-44
2024/02/21 08:06:53;;;;;;;;;;;10.20;90.10;;;;;;5012517;28;87790;-44
2024/02/21 08:09:19;;;;;;;;;;;10.20;89.80;;;;;;5019280;28;88658;-45
2024/02/21 08:11:44;;;;;;;;;;;10.40;88.90;;;;;;5019919;28;88820;-44
2024/02/21 08:14:10;;;;;;;;;;;10.50;87.90;;;;;;5017189;28;86881;-44
2024/02/21 08:16:36;;;;;;;;;;;10.50;87.00;;;;;;5016758;28;88804;-44
2024/02/21 08:19:04;;;;;;;;;;;10.60;86.20;;;;;;5016097;28;87274;-44
2024/02/21 08:21:29;;;;;;;;;;;10.70;85.60;;;;;;5012597;28;88167;-44
2024/02/21 08:23:55;;;;;;;;;;;10.70;85.00;;;;;;5015005;28;86695;-44
2024/02/21 08:26:20;;;;;;;;;;;10.80;84.40;;;;;;5018562;28;87083;-44
2024/02/21 08:28:46;;;;;;;;;;;10.90;83.90;;;;;;5014507;28;87883;-44
2024/02/21 08:31:18;;;;;;;;;;;10.90;83.40;;;;;;5018127;28;88478;-45
2024/02/21 08:33:43;;;;;;;;;;;10.90;82.90;;;;;;5017206;28;87752;-44
2024/02/21 08:36:09;;;;;;;;;;;10.90;82.40;;;;;;5017293;28;87580;-44
2024/02/21 08:38:34;;;;;;;;;;;11.00;82.00;;;;;;5013649;28;86954;-44
2024/02/21 08:41:00;;;;;;;;;;;11.00;81.50;;;;;;5019150;28;87056;-44
2024/02/21 08:43:25;;;;;;;;;;;11.00;81.00;;;;;;5013987;28;88507;-44
2024/02/21 08:45:51;;;;;;;;;;;11.00;80.60;;;;;;5012840;28;87040;-44
2024/02/21 08:48:16;;;;;;;;;;;10.90;80.20;;;;;;5020011;28;86686;-44
2024/02/21 08:50:42;;;;;;;;;;;11.00;79.80;;;;;;5019619;28;87337;-44
2024/02/21 08:53:08;;;;;;;;;;;10.90;79.40;;;;;;5018213;28;87323;-44
2024/02/21 08:55:35;;;;;;;;;;;10.90;79.10;;;;;;5018542;28;88503;-44
2024/02/21 08:58:01;;;;;;;;;;;10.90;78.70;;;;;;5013436;28;87734;-44
2024/02/21 09:00:27;;;;;;;;;;;10.90;78.40;;;;;;5016708;28;86893;-44
2024/02/21 09:02:52;;;;;;;;;;;10.90;78.10;;;;;;5018600;28;87420;-44
2024/02/21 09:05:18;;;;;;;;;;;10.90;77.80;;;;;;5014589;28;87770;-44
2024/02/21 09:07:44;;;;;;;;;;;10.90;77.50;;;;;;5015263;28;87903;-44
2024/02/21 09:10:09;;;;;;;;;;;10.90;77.30;;;;;;5020869;28;87508;-44
2024/02/21 09:12:35;;;;;;;;;;;10.90;77.00;;;;;;5020302;27;86537;-44
2024/02/21 09:15:00;;;;;;;;;;;10.90;76.80;;;;;;5020108;28;87089;-44
2024/02/21 09:17:29;;;;;;;;;;;10.80;76.50;;;;;;5014572;28;87172;-44
2024/02/21 09:19:55;;;;;;;;;;;10.80;76.30;;;;;;5013780;28;88440;-44
2024/02/21 09:22:21;;;;;;;;;;;10.80;76.10;;;;;;5014679;28;88770;-44
2024/02/21 09:24:48;;;;;;;;;;;10.80;76.00;;;;;;5015101;28;87893;-44
2024/02/21 09:27:13;;;;;;;;;;;10.80;75.80;;;;;;5014580;28;88264;-45
2024/02/21 09:29:39;;;;;;;;;;;10.80;75.60;;;;;;5017105;28;88436;-44
2024/02/21 09:32:05;;;;;;;;;;;10.70;75.40;;;;;;5015327;28;87091;-44
2024/02/21 09:34:30;;;;;;;;;;;10.70;75.30;;;;;;5011486;28;87104;-44
2024/02/21 09:36:56;;;;;;;;;;;10.70;75.10;;;;;;5016190;28;86644;-44
2024/02/21 09:39:21;;;;;;;;;;;10.70;75.00;;;;;;5020473;28;87011;-44
2024/02/21 09:41:55;;;;;;;;;;;10.70;74.90;;;;;;5011705;28;87592;-44
2024/02/21 09:44:21;;;;;;;;;;;10.60;74.60;;;;;;5015382;28;89191;-44
2024/02/21 09:46:47;;;;;;;;;;;10.70;74.60;;;;;;5014437;28;87691;-44
2024/02/21 09:49:12;;;;;;;;;;;10.60;74.40;;;;;;5014289;28;88486;-45
2024/02/21 09:51:38;;;;;;;;;;;10.60;74.30;;;;;;5013047;28;87529;-44
2024/02/21 09:54:04;;;;;;;;;;;10.60;74.20;;;;;;5014299;28;87133;-44
2024/02/21 09:56:29;;;;;;;;;;;10.60;74.10;;;;;;5018821;28;87457;-44
2024/02/21 09:58:56;;;;;;;;;;;10.60;74.00;;;;;;5019931;28;87795;-44
2024/02/21 10:01:21;;;;;;;;;;;10.50;73.90;;;;;;5013384;28;86158;-44
2024/02/21 10:03:47;;;;;;;;;;;10.50;73.80;;;;;;5013165;28;87023;-44
2024/02/21 10:06:13;;;;;;;;;;;10.50;73.70;;;;;;5018327;28;87973;-44
2024/02/21 10:08:39;;;;;;;;;;;10.50;73.70;;;;;;5016967;28;89702;-44
2024/02/21 10:11:04;;;;;;;;;;;10.50;73.60;;;;;;5014158;27;87515;-44
2024/02/21 10:13:30;;;;;;;;;;;10.50;73.50;;;;;;5015642;28;87236;-44
2024/02/21 10:16:05;;;;;;;;;;;10.50;73.40;;;;;;5019425;28;87392;-43
2024/02/21 10:18:31;;;;;;;;;;;10.40;73.30;;;;;;5019096;28;87008;-44
2024/02/21 10:21:03;;;;;;;;;;;10.40;73.20;;;;;;5016274;28;88480;-44
2024/02/21 10:23:29;;;;;;;;;;;10.40;73.20;;;;;;5015569;28;86958;-44
2024/02/21 10:26:04;;;;;;;;;;;10.40;73.10;;;;;;5017994;28;87119;-44
2024/02/21 10:28:29;;;;;;;;;;;10.40;73.10;;;;;;5012004;28;87280;-44
2024/02/21 10:30:55;;;;;;;;;;;10.30;73.00;;;;;;5014329;28;87606;-47
2024/02/21 10:33:20;;;;;;;;;;;10.30;72.90;;;;;;5017517;28;87855;-44
2024/02/21 10:35:49;;;;;;;;;;;10.30;72.90;;;;;;5010503;28;87534;-44
2024/02/21 10:38:15;;;;;;;;;;;10.30;72.80;;;;;;5012504;28;87679;-44
2024/02/21 10:40:40;;;;;;;;;;;10.30;72.80;;;;;;5017193;27;87243;-45
2024/02/21 10:43:11;;;;;;;;;;;10.30;72.70;;;;;;5012898;28;87040;-44
2024/02/21 10:45:36;;;;;;;;;;;10.30;72.70;;;;;;5011142;28;88711;-44
2024/02/21 10:48:08;;;;;;;;;;;10.20;72.60;;;;;;5011866;28;87437;-44
2024/02/21 10:50:36;;;;;;;;;;;10.20;72.50;;;;;;5018106;28;86245;-44
2024/02/21 10:53:11;;;;;;;;;;;10.20;72.50;;;;;;5013367;28;87098;-44
2024/02/21 10:55:42;;;;;;;;;;;10.20;72.50;;;;;;5017092;28;87857;-44
2024/02/21 10:58:10;;;;;;;;;;;10.20;72.50;;;;;;5012291;28;89583;-44
2024/02/21 11:00:36;;;;;;;;;;;10.10;72.40;;;;;;5013496;28;87787;-44
2024/02/21 11:03:03;;;;;;;;;;;10.10;72.40;;;;;;5014072;28;87399;-44
2024/02/21 11:05:29;;;;;;;;;;;10.10;72.30;;;;;;5013589;28;87941;-44
2024/02/21 11:07:55;;;;;;;;;;;10.10;72.30;;;;;;5009472;28;88721;-44
2024/02/21 11:10:22;;;;;;;;;;;10.10;72.20;;;;;;5018360;28;86861;-44
2024/02/21 11:12:48;;;;;;;;;;;10.10;72.20;;;;;;5014668;28;87034;-44
2024/02/21 11:15:13;;;;;;;;;;;10.10;72.20;;;;;;5016660;28;87391;-44
2024/02/21 11:17:39;;;;;;;;;;;10.00;72.00;;;;;;5022171;28;87558;-44
2024/02/21 11:20:12;;;;;;;;;;;10.00;72.00;;;;;;5023110;28;88462;-45
2024/02/21 11:22:41;;;;;;;;;;;10.00;72.00;;;;;;5016527;28;89547;-44
2024/02/21 11:25:13;;;;;;;;;;;10.00;71.90;;;;;;5018295;28;87134;-44
2024/02/21 11:27:45;;;;;;;;;;;10.00;71.90;;;;;;5019980;28;88482;-44
2024/02/21 11:30:11;;;;;;;;;;;10.00;71.80;;;;;;5015866;28;87491;-44
2024/02/21 11:32:37;;;;;;;;;;;10.00;71.80;;;;;;5016577;28;88483;-44
2024/02/21 11:35:04;;;;;;;;;;;9.90;71.80;;;;;;5014897;28;87349;-44
2024/02/21 11:37:33;;;;;;;;;;;9.90;71.80;;;;;;5017927;28;87649;-44
2024/02/21 11:39:59;;;;;;;;;;;9.90;72.30;;;;;;5017939;28;86987;-44
2024/02/21 11:42:25;;;;;;;;;;;9.90;71.70;;;;;;5014656;28;87453;-44
2024/02/21 11:44:50;;;;;;;;;;;9.90;71.70;;;;;;5022971;28;87716;-44
2024/02/21 11:47:17;;;;;;;;;;;9.90;71.70;;;;;;5021049;28;87927;-44
2024/02/21 11:49:45;;;;;;;;;;;9.80;71.60;;;;;;5017728;28;87785;-45
2024/02/21 11:52:11;;;;;;;;;;;9.80;71.60;;;;;;5013262;28;87943;-44
2024/02/21 11:54:36;;;;;;;;;;;9.80;71.60;;;;;;5018354;28;87581;-44
2024/02/21 11:57:04;;;;;;;;;;;9.80;71.60;;;;;;5016900;28;87069;-44
2024/02/21 11:59:30;;;;;;;;;;;9.80;71.60;;;;;;5019701;28;87987;-44
2024/02/21 12:01:56;;;;;;;;;;;9.80;71.60;;;;;;5013514;28;87004;-44
2024/02/21 12:04:23;;;;;;;;;;;9.80;71.50;;;;;;5020034;28;86387;-44
2024/02/21 12:06:49;;;;;;;;;;;9.80;71.50;;;;;;5022182;28;87115;-44
2024/02/21 12:09:17;;;;;;;;;;;9.70;71.50;;;;;;5012492;28;87017;-44
2024/02/21 12:11:44;;;;;;;;;;;9.70;71.40;;;;;;5020823;28;88176;-44
2024/02/21 12:14:09;;;;;;;;;;;9.70;71.50;;;;;;5018895;28;88487;-44
2024/02/21 12:16:38;;;;;;;;;;;9.70;71.40;;;;;;5015025;28;87051;-44
2024/02/21 12:19:04;;;;;;;;;;;9.70;71.40;;;;;;5017499;28;88032;-44
2024/02/21 12:21:30;;;;;;;;;;;9.70;71.50;;;;;;5016538;28;87403;-44
2024/02/21 12:23:56;;;;;;;;;;;9.60;71.40;;;;;;5018813;28;87047;-44
2024/02/21 12:26:22;;;;;;;;;;;9.60;71.40;;;;;;5016343;28;86908;-45
2024/02/21 12:28:47;;;;;;;;;;;9.60;71.40;;;;;;5019861;28;86687;-44
2024/02/21 12:31:13;;;;;;;;;;;9.60;71.30;;;;;;5015621;28;87121;-44
2024/02/21 12:33:39;;;;;;;;;;;9.60;71.30;;;;;;5022329;28;87321;-44
2024/02/21 12:36:04;;;;;;;;;;;9.60;71.30;;;;;;5013922;28;89311;-44
2024/02/21 12:38:30;;;;;;;;;;;9.50;71.30;;;;;;5012672;28;88787;-44
2024/02/21 12:40:57;;;;;;;;;;;9.50;71.30;;;;;;5015135;28;88749;-44
2024/02/21 12:43:23;;;;;;;;;;;9.50;71.20;;;;;;5013989;28;86950;-44
2024/02/21 12:45:48;;;;;;;;;;;9.50;71.20;;;;;;5020971;28;88009;-44
2024/02/21 12:48:14;;;;;;;;;;;9.50;71.20;;;;;;5018995;27;87391;-44
2024/02/21 12:50:47;;;;;;;;;;;9.50;71.20;;;;;;5018511;28;87258;-44
2024/02/21 12:53:13;;;;;;;;;;;9.50;71.20;;;;;;5016110;28;86739;-44
2024/02/21 12:55:39;;;;;;;;;;;9.40;71.20;;;;;;5015821;28;87029;-44
2024/02/21 12:58:06;;;;;;;;;;;9.40;71.10;;;;;;5014888;28;88421;-44
2024/02/21 13:00:32;;;;;;;;;;;9.40;71.10;;;;;;5014441;28;89442;-44
2024/02/21 13:02:58;;;;;;;;;;;9.40;71.10;;;;;;5019880;28;87646;-44
2024/02/21 13:05:23;;;;;;;;;;;9.40;71.10;;;;;;5017365;28;87299;-44
2024/02/21 13:07:49;;;;;;;;;;;9.40;71.10;;;;;;5018717;28;87467;-44
2024/02/21 13:10:15;;;;;;;;;;;9.30;71.10;;;;;;5011250;28;87760;-44
2024/02/21 13:12:40;;;;;;;;;;;9.40;71.10;;;;;;5016437;28;87197;-44
2024/02/21 13:15:06;;;;;;;;;;;9.30;71.10;;;;;;5015675;28;87783;-44
2024/02/21 13:17:33;;;;;;;;;;;9.30;71.10;;;;;;5016273;28;87960;-44
2024/02/21 13:19:58;;;;;;;;;;;9.30;71.10;;;;;;5014306;28;88502;-44
2024/02/21 13:22:26;;;;;;;;;;;9.30;71.10;;;;;;5022124;28;87122;-44
2024/02/21 13:24:52;;;;;;;;;;;9.30;71.10;;;;;;5014012;28;87988;-44
2024/02/21 13:27:17;;;;;;;;;;;9.30;71.10;;;;;;5010646;28;87574;-44
2024/02/21 13:29:43;;;;;;;;;;;9.20;71.00;;;;;;5019212;28;86779;-44
2024/02/21 13:32:08;;;;;;;;;;;9.20;71.00;;;;;;5013858;28;87956;-44
2024/02/21 13:34:34;;;;;;;;;;;9.20;71.00;;;;;;5018248;28;88724;-44
2024/02/21 13:36:59;;;;;;;;;;;9.20;71.00;;;;;;5014395;28;87547;-44
2024/02/21 13:39:25;;;;;;;;;;;9.20;71.00;;;;;;5014897;28;87339;-44
2024/02/21 13:41:50;;;;;;;;;;;9.20;71.00;;;;;;5016085;28;86331;-44
2024/02/21 13:44:16;;;;;;;;;;;9.10;70.90;;;;;;5015982;28;87937;-44
2024/02/21 13:46:41;;;;;;;;;;;9.10;70.90;;;;;;5015698;28;87613;-44
2024/02/21 13:49:07;;;;;;;;;;;9.10;70.90;;;;;;5012670;28;88003;-44
2024/02/21 13:51:36;;;;;;;;;;;9.10;70.90;;;;;;5010513;28;88681;-44
2024/02/21 13:54:02;;;;;;;;;;;9.10;70.90;;;;;;5011583;28;87947;-44
2024/02/21 13:56:28;;;;;;;;;;;9.10;70.90;;;;;;5019806;28;87707;-44
2024/02/21 13:58:53;;;;;;;;;;;9.10;70.90;;;;;;5011044;28;87046;-44
2024/02/21 14:01:19;;;;;;;;;;;9.10;70.90;;;;;;5015773;28;87945;-44
2024/02/21 14:03:44;;;;;;;;;;;9.10;70.90;;;;;;5013861;28;88152;-44
2024/02/21 14:06:10;;;;;;;;;;;9.00;70.90;;;;;;5018764;28;86704;-44
2024/02/21 14:08:36;;;;;;;;;;;9.00;70.90;;;;;;5014860;28;87054;-44
2024/02/21 14:11:02;;;;;;;;;;;9.00;70.90;;;;;;5015247;28;88594;-44
2024/02/21 14:13:28;;;;;;;;;;;9.00;70.90;;;;;;5013223;28;88840;-44
2024/02/21 14:15:54;;;;;;;;;;;9.00;70.80;;;;;;5018529;28;86993;-44
2024/02/21 14:18:22;;;;;;;;;;;9.00;70.90;;;;;;5022611;28;88440;-44